Cygnus — 9HA2105 — position and weather

sailwx.info

Track history (hours):
 
Tides and Currents Weather Stations Pressure Air Temp Water Temp Dewpoint Dewpoint Depression Visibility Wind Speed Wind Dir Waves Ship Positions

Cygnus

Last reported at 2017-Jan-04 20:04 UTC. Time now 2017-Jun-27 17:37 UTC.
Position N 36°43' E 000°42'.
Warning: this ship's position is months out of date.

Length 177 m; draft 10.3 m.

Type: Cargo ship. MMSI: 249963000.

Date/timePositionNaut miles runAvg speedWind from/ knotsBaromVisibWave heightAir tempDewpointWater temp
2017-Jan-04 20:04N 36°43' E 000°42'612.5
2017-Jan-04 19:34N 36°42' E 000°34'1312.8
2017-Jan-04 18:33N 36°41' E 000°18'1312.9
2017-Jan-04 17:33N 36°38' E 000°02'1312.9
2017-Jan-04 16:31N 36°37' W 000°14'1712.8
2017-Jan-04 15:12N 36°34' W 000°35'913.1
2017-Jan-04 14:30N 36°33' W 000°46'6513.0
2017-Jan-04 09:32N 36°23' W 002°06'3012.7
2017-Jan-04 07:08N 36°19' W 002°43'11112.5
2017-Jan-03 22:14N 36°07' W 005°01'812.6
2017-Jan-03 21:34N 36°06' W 005°11'9 8.6
2017-Jan-03 20:34N 36°07' W 005°21'0 0.1
2017-Jan-03 19:30N 36°07' W 005°21'0 0.0
2017-Jan-03 18:33N 36°07' W 005°21'0 0.0
2017-Jan-03 17:33N 36°07' W 005°21'0 0.0
2017-Jan-03 16:33N 36°07' W 005°21'0 0.0
2017-Jan-03 15:30N 36°07' W 005°21'0 0.0
2017-Jan-03 14:30N 36°07' W 005°21'0 0.1
2017-Jan-03 13:27N 36°07' W 005°21'0 0.0
2017-Jan-03 12:30N 36°07' W 005°21'0 0.1
2017-Jan-03 11:30N 36°07' W 005°21'  
Track history (hours):
 
Tides and Currents Weather Stations Pressure Air Temp Water Temp Dewpoint Dewpoint Depression Visibility Wind Speed Wind Dir Waves Ship Positions

Cygnus

Last reported at 2017-Jan-04 20:04 UTC. Time now 2017-Jun-27 17:37 UTC.
Position N 36°43' E 000°42'.
Warning: this ship's position is months out of date.

Length 177 m; draft 10.3 m.

Type: Cargo ship. MMSI: 249963000.

Date/timePositionNaut miles runAvg speedWind from/ knotsBaromVisibWave heightAir tempDewpointWater temp
2017-Jan-04 20:04N 36°43' E 000°42'612.5
2017-Jan-04 19:34N 36°42' E 000°34'1312.8
2017-Jan-04 18:33N 36°41' E 000°18'1312.9
2017-Jan-04 17:33N 36°38' E 000°02'1312.9
2017-Jan-04 16:31N 36°37' W 000°14'1712.8
2017-Jan-04 15:12N 36°34' W 000°35'913.1
2017-Jan-04 14:30N 36°33' W 000°46'6513.0
2017-Jan-04 09:32N 36°23' W 002°06'3012.7
2017-Jan-04 07:08N 36°19' W 002°43'11112.5
2017-Jan-03 22:14N 36°07' W 005°01'812.6
2017-Jan-03 21:34N 36°06' W 005°11'9 8.6
2017-Jan-03 20:34N 36°07' W 005°21'0 0.1
2017-Jan-03 19:30N 36°07' W 005°21'0 0.0
2017-Jan-03 18:33N 36°07' W 005°21'0 0.0
2017-Jan-03 17:33N 36°07' W 005°21'0 0.0
2017-Jan-03 16:33N 36°07' W 005°21'0 0.0
2017-Jan-03 15:30N 36°07' W 005°21'0 0.0
2017-Jan-03 14:30N 36°07' W 005°21'0 0.1
2017-Jan-03 13:27N 36°07' W 005°21'0 0.0
2017-Jan-03 12:30N 36°07' W 005°21'0 0.1
2017-Jan-03 11:30N 36°07' W 005°21'  

Dump ship's entire track history